sensor_id;sensor_type;location;lat;lon;timestamp;P1;durP1;ratioP1;P2;durP2;ratioP2
59263;SDS011;45030;42.720;23.344;2022-11-13T00:00:05;12.40;;;7.47;;
59263;SDS011;45030;42.720;23.344;2022-11-13T00:02:32;11.48;;;7.53;;
59263;SDS011;45030;42.720;23.344;2022-11-13T00:04:58;11.70;;;6.85;;
59263;SDS011;45030;42.720;23.344;2022-11-13T00:07:23;10.93;;;7.32;;
59263;SDS011;45030;42.720;23.344;2022-11-13T00:09:48;10.23;;;7.45;;
59263;SDS011;45030;42.720;23.344;2022-11-13T00:12:13;12.75;;;7.88;;
59263;SDS011;45030;42.720;23.344;2022-11-13T00:14:39;11.13;;;7.30;;
59263;SDS011;45030;42.720;23.344;2022-11-13T00:17:04;11.00;;;7.45;;
59263;SDS011;45030;42.720;23.344;2022-11-13T00:19:30;11.13;;;7.28;;
59263;SDS011;45030;42.720;23.344;2022-11-13T00:21:55;11.65;;;7.72;;
59263;SDS011;45030;42.720;23.344;2022-11-13T00:24:23;11.48;;;7.53;;
59263;SDS011;45030;42.720;23.344;2022-11-13T00:26:48;11.25;;;7.13;;
59263;SDS011;45030;42.720;23.344;2022-11-13T00:29:14;10.32;;;7.35;;
59263;SDS011;45030;42.720;23.344;2022-11-13T00:31:39;11.32;;;6.82;;
59263;SDS011;45030;42.720;23.344;2022-11-13T00:34:04;11.73;;;7.97;;
59263;SDS011;45030;42.720;23.344;2022-11-13T00:36:29;9.90;;;6.88;;
59263;SDS011;45030;42.720;23.344;2022-11-13T00:38:55;13.70;;;7.82;;
59263;SDS011;45030;42.720;23.344;2022-11-13T00:41:21;10.68;;;7.70;;
59263;SDS011;45030;42.720;23.344;2022-11-13T00:43:46;10.10;;;7.07;;
59263;SDS011;45030;42.720;23.344;2022-11-13T00:46:11;10.10;;;7.60;;
59263;SDS011;45030;42.720;23.344;2022-11-13T00:48:37;9.82;;;5.97;;
59263;SDS011;45030;42.720;23.344;2022-11-13T00:51:02;10.45;;;7.90;;
59263;SDS011;45030;42.720;23.344;2022-11-13T00:53:27;9.00;;;6.43;;
59263;SDS011;45030;42.720;23.344;2022-11-13T00:55:52;9.10;;;6.35;;
59263;SDS011;45030;42.720;23.344;2022-11-13T00:58:18;10.77;;;6.53;;
59263;SDS011;45030;42.720;23.344;2022-11-13T01:00:44;12.02;;;7.97;;
59263;SDS011;45030;42.720;23.344;2022-11-13T01:03:10;11.57;;;7.85;;
59263;SDS011;45030;42.720;23.344;2022-11-13T01:05:36;9.32;;;6.65;;
59263;SDS011;45030;42.720;23.344;2022-11-13T01:08:02;13.20;;;7.57;;
59263;SDS011;45030;42.720;23.344;2022-11-13T01:10:27;11.07;;;6.88;;
59263;SDS011;45030;42.720;23.344;2022-11-13T01:12:52;13.60;;;7.25;;
59263;SDS011;45030;42.720;23.344;2022-11-13T01:15:18;12.48;;;7.93;;
59263;SDS011;45030;42.720;23.344;2022-11-13T01:17:43;10.55;;;7.07;;
59263;SDS011;45030;42.720;23.344;2022-11-13T01:20:08;12.25;;;7.45;;
59263;SDS011;45030;42.720;23.344;2022-11-13T01:22:34;10.50;;;7.53;;
59263;SDS011;45030;42.720;23.344;2022-11-13T01:24:59;12.93;;;7.35;;
59263;SDS011;45030;42.720;23.344;2022-11-13T01:27:24;13.07;;;7.03;;
59263;SDS011;45030;42.720;23.344;2022-11-13T01:29:49;10.02;;;6.82;;
59263;SDS011;45030;42.720;23.344;2022-11-13T01:32:15;12.20;;;7.63;;
59263;SDS011;45030;42.720;23.344;2022-11-13T01:34:40;10.10;;;6.70;;
59263;SDS011;45030;42.720;23.344;2022-11-13T01:37:05;10.63;;;8.00;;
59263;SDS011;45030;42.720;23.344;2022-11-13T01:39:30;11.70;;;7.82;;
59263;SDS011;45030;42.720;23.344;2022-11-13T01:41:56;11.40;;;8.02;;
59263;SDS011;45030;42.720;23.344;2022-11-13T01:44:21;13.45;;;8.02;;
59263;SDS011;45030;42.720;23.344;2022-11-13T01:46:53;12.57;;;7.82;;
59263;SDS011;45030;42.720;23.344;2022-11-13T01:49:36;12.80;;;7.47;;
59263;SDS011;45030;42.720;23.344;2022-11-13T01:52:02;11.77;;;6.28;;
59263;SDS011;45030;42.720;23.344;2022-11-13T01:54:30;12.43;;;8.00;;
59263;SDS011;45030;42.720;23.344;2022-11-13T01:56:56;12.63;;;6.95;;
59263;SDS011;45030;42.720;23.344;2022-11-13T01:59:32;12.55;;;8.25;;
59263;SDS011;45030;42.720;23.344;2022-11-13T02:01:58;14.25;;;7.95;;
59263;SDS011;45030;42.720;23.344;2022-11-13T02:04:23;11.52;;;7.88;;
59263;SDS011;45030;42.720;23.344;2022-11-13T02:06:59;12.77;;;7.35;;
59263;SDS011;45030;42.720;23.344;2022-11-13T02:09:26;15.07;;;8.30;;
59263;SDS011;45030;42.720;23.344;2022-11-13T02:11:53;10.77;;;6.72;;
59263;SDS011;45030;42.720;23.344;2022-11-13T02:14:18;10.95;;;7.28;;
59263;SDS011;45030;42.720;23.344;2022-11-13T02:16:46;9.68;;;6.35;;
59263;SDS011;45030;42.720;23.344;2022-11-13T02:19:13;13.40;;;7.25;;
59263;SDS011;45030;42.720;23.344;2022-11-13T02:21:43;14.25;;;6.97;;
59263;SDS011;45030;42.720;23.344;2022-11-13T02:26:40;13.88;;;7.90;;
59263;SDS011;45030;42.720;23.344;2022-11-13T02:29:06;13.65;;;7.22;;
59263;SDS011;45030;42.720;23.344;2022-11-13T02:31:31;10.98;;;6.47;;
59263;SDS011;45030;42.720;23.344;2022-11-13T02:33:56;11.45;;;6.57;;
59263;SDS011;45030;42.720;23.344;2022-11-13T02:36:21;13.07;;;7.93;;
59263;SDS011;45030;42.720;23.344;2022-11-13T02:38:48;14.18;;;6.65;;
59263;SDS011;45030;42.720;23.344;2022-11-13T02:41:13;9.80;;;6.10;;
59263;SDS011;45030;42.720;23.344;2022-11-13T02:43:39;8.68;;;6.22;;
59263;SDS011;45030;42.720;23.344;2022-11-13T02:46:04;11.63;;;7.30;;
59263;SDS011;45030;42.720;23.344;2022-11-13T02:48:29;12.73;;;7.75;;
59263;SDS011;45030;42.720;23.344;2022-11-13T02:50:54;18.50;;;7.15;;
59263;SDS011;45030;42.720;23.344;2022-11-13T02:53:20;11.35;;;7.15;;
59263;SDS011;45030;42.720;23.344;2022-11-13T02:55:45;12.15;;;7.03;;
59263;SDS011;45030;42.720;23.344;2022-11-13T02:58:10;13.20;;;7.15;;
59263;SDS011;45030;42.720;23.344;2022-11-13T03:00:36;11.20;;;6.70;;
59263;SDS011;45030;42.720;23.344;2022-11-13T03:03:01;15.55;;;7.60;;
59263;SDS011;45030;42.720;23.344;2022-11-13T03:05:26;12.05;;;6.90;;
59263;SDS011;45030;42.720;23.344;2022-11-13T03:07:51;14.70;;;8.15;;
59263;SDS011;45030;42.720;23.344;2022-11-13T03:10:17;11.82;;;7.63;;
59263;SDS011;45030;42.720;23.344;2022-11-13T03:12:43;11.45;;;7.95;;
59263;SDS011;45030;42.720;23.344;2022-11-13T03:15:09;11.35;;;7.28;;
59263;SDS011;45030;42.720;23.344;2022-11-13T03:17:34;12.68;;;7.18;;
59263;SDS011;45030;42.720;23.344;2022-11-13T03:19:59;10.82;;;7.90;;
59263;SDS011;45030;42.720;23.344;2022-11-13T03:22:25;9.55;;;6.75;;
59263;SDS011;45030;42.720;23.344;2022-11-13T03:24:50;11.00;;;6.45;;
59263;SDS011;45030;42.720;23.344;2022-11-13T03:27:16;13.20;;;8.48;;
59263;SDS011;45030;42.720;23.344;2022-11-13T03:29:41;14.18;;;7.90;;
59263;SDS011;45030;42.720;23.344;2022-11-13T03:32:06;12.00;;;6.85;;
59263;SDS011;45030;42.720;23.344;2022-11-13T03:34:31;14.65;;;8.88;;
59263;SDS011;45030;42.720;23.344;2022-11-13T03:36:56;13.73;;;7.72;;
59263;SDS011;45030;42.720;23.344;2022-11-13T03:39:22;14.18;;;9.77;;
59263;SDS011;45030;42.720;23.344;2022-11-13T03:41:47;17.40;;;10.02;;
59263;SDS011;45030;42.720;23.344;2022-11-13T03:44:12;16.65;;;10.60;;
59263;SDS011;45030;42.720;23.344;2022-11-13T03:46:37;14.43;;;8.40;;
59263;SDS011;45030;42.720;23.344;2022-11-13T03:49:03;11.85;;;8.02;;
59263;SDS011;45030;42.720;23.344;2022-11-13T03:51:28;14.65;;;8.57;;
59263;SDS011;45030;42.720;23.344;2022-11-13T03:53:53;16.10;;;7.85;;
59263;SDS011;45030;42.720;23.344;2022-11-13T03:56:18;14.30;;;8.63;;
59263;SDS011;45030;42.720;23.344;2022-11-13T03:58:44;15.45;;;8.38;;
59263;SDS011;45030;42.720;23.344;2022-11-13T04:01:09;13.68;;;8.27;;
59263;SDS011;45030;42.720;23.344;2022-11-13T04:03:34;14.23;;;8.73;;
59263;SDS011;45030;42.720;23.344;2022-11-13T04:05:59;13.80;;;9.10;;
59263;SDS011;45030;42.720;23.344;2022-11-13T04:08:25;14.52;;;9.02;;
59263;SDS011;45030;42.720;23.344;2022-11-13T04:10:50;15.05;;;9.07;;
59263;SDS011;45030;42.720;23.344;2022-11-13T04:13:15;13.35;;;7.32;;
59263;SDS011;45030;42.720;23.344;2022-11-13T04:15:40;12.90;;;8.50;;
59263;SDS011;45030;42.720;23.344;2022-11-13T04:18:06;14.02;;;8.85;;
59263;SDS011;45030;42.720;23.344;2022-11-13T04:20:31;15.88;;;10.20;;
59263;SDS011;45030;42.720;23.344;2022-11-13T04:22:56;16.58;;;10.57;;
59263;SDS011;45030;42.720;23.344;2022-11-13T04:25:22;11.98;;;8.00;;
59263;SDS011;45030;42.720;23.344;2022-11-13T04:27:48;14.35;;;7.43;;
59263;SDS011;45030;42.720;23.344;2022-11-13T04:30:13;17.25;;;10.30;;
59263;SDS011;45030;42.720;23.344;2022-11-13T04:32:38;11.93;;;8.75;;
59263;SDS011;45030;42.720;23.344;2022-11-13T04:35:03;13.63;;;9.05;;
59263;SDS011;45030;42.720;23.344;2022-11-13T04:37:29;12.30;;;8.57;;
59263;SDS011;45030;42.720;23.344;2022-11-13T04:39:54;16.35;;;8.57;;
59263;SDS011;45030;42.720;23.344;2022-11-13T04:42:19;11.63;;;8.45;;
59263;SDS011;45030;42.720;23.344;2022-11-13T04:45:04;14.30;;;8.35;;
59263;SDS011;45030;42.720;23.344;2022-11-13T04:47:29;12.20;;;7.25;;
59263;SDS011;45030;42.720;23.344;2022-11-13T04:49:54;14.20;;;8.73;;
59263;SDS011;45030;42.720;23.344;2022-11-13T04:52:19;14.27;;;8.23;;
59263;SDS011;45030;42.720;23.344;2022-11-13T04:54:45;14.90;;;9.00;;
59263;SDS011;45030;42.720;23.344;2022-11-13T04:57:10;16.65;;;9.85;;
59263;SDS011;45030;42.720;23.344;2022-11-13T04:59:35;15.07;;;9.35;;
59263;SDS011;45030;42.720;23.344;2022-11-13T05:02:00;15.10;;;10.13;;
59263;SDS011;45030;42.720;23.344;2022-11-13T05:04:26;13.52;;;9.77;;
59263;SDS011;45030;42.720;23.344;2022-11-13T05:06:51;16.17;;;8.85;;
59263;SDS011;45030;42.720;23.344;2022-11-13T05:09:16;17.55;;;8.80;;
59263;SDS011;45030;42.720;23.344;2022-11-13T05:11:42;16.30;;;9.68;;
59263;SDS011;45030;42.720;23.344;2022-11-13T05:14:09;17.10;;;10.57;;
59263;SDS011;45030;42.720;23.344;2022-11-13T05:16:34;16.05;;;9.30;;
59263;SDS011;45030;42.720;23.344;2022-11-13T05:19:00;14.70;;;9.60;;
59263;SDS011;45030;42.720;23.344;2022-11-13T05:21:31;17.38;;;10.52;;
59263;SDS011;45030;42.720;23.344;2022-11-13T05:23:56;21.13;;;12.15;;
59263;SDS011;45030;42.720;23.344;2022-11-13T05:26:21;17.42;;;10.85;;
59263;SDS011;45030;42.720;23.344;2022-11-13T05:28:46;21.50;;;14.13;;
59263;SDS011;45030;42.720;23.344;2022-11-13T05:31:12;21.27;;;13.63;;
59263;SDS011;45030;42.720;23.344;2022-11-13T05:33:38;20.50;;;12.93;;
59263;SDS011;45030;42.720;23.344;2022-11-13T05:36:05;21.30;;;13.60;;
59263;SDS011;45030;42.720;23.344;2022-11-13T05:38:30;23.35;;;13.68;;
59263;SDS011;45030;42.720;23.344;2022-11-13T05:41:03;24.10;;;13.20;;
59263;SDS011;45030;42.720;23.344;2022-11-13T05:43:29;24.15;;;14.48;;
59263;SDS011;45030;42.720;23.344;2022-11-13T05:48:25;23.15;;;13.23;;
59263;SDS011;45030;42.720;23.344;2022-11-13T05:50:50;23.40;;;12.25;;
59263;SDS011;45030;42.720;23.344;2022-11-13T05:53:16;19.85;;;12.52;;
59263;SDS011;45030;42.720;23.344;2022-11-13T05:55:41;24.65;;;12.80;;
59263;SDS011;45030;42.720;23.344;2022-11-13T05:58:06;28.13;;;16.55;;
59263;SDS011;45030;42.720;23.344;2022-11-13T06:00:31;25.17;;;14.13;;
59263;SDS011;45030;42.720;23.344;2022-11-13T06:02:57;23.38;;;13.38;;
59263;SDS011;45030;42.720;23.344;2022-11-13T06:05:23;21.00;;;14.18;;
59263;SDS011;45030;42.720;23.344;2022-11-13T06:07:49;24.45;;;14.55;;
59263;SDS011;45030;42.720;23.344;2022-11-13T06:10:14;31.15;;;17.58;;
59263;SDS011;45030;42.720;23.344;2022-11-13T06:12:39;21.52;;;13.63;;
59263;SDS011;45030;42.720;23.344;2022-11-13T06:15:05;21.83;;;13.43;;
59263;SDS011;45030;42.720;23.344;2022-11-13T06:17:30;22.15;;;13.63;;
59263;SDS011;45030;42.720;23.344;2022-11-13T06:19:55;22.60;;;12.25;;
59263;SDS011;45030;42.720;23.344;2022-11-13T06:22:20;19.85;;;12.40;;
59263;SDS011;45030;42.720;23.344;2022-11-13T06:24:46;25.83;;;15.65;;
59263;SDS011;45030;42.720;23.344;2022-11-13T06:27:11;65.93;;;42.67;;
59263;SDS011;45030;42.720;23.344;2022-11-13T06:29:36;40.20;;;23.20;;
59263;SDS011;45030;42.720;23.344;2022-11-13T06:32:01;34.00;;;19.85;;
59263;SDS011;45030;42.720;23.344;2022-11-13T06:34:27;22.38;;;13.68;;
59263;SDS011;45030;42.720;23.344;2022-11-13T06:36:52;21.40;;;12.98;;
59263;SDS011;45030;42.720;23.344;2022-11-13T06:39:17;23.27;;;12.55;;
59263;SDS011;45030;42.720;23.344;2022-11-13T06:41:42;20.02;;;12.52;;
59263;SDS011;45030;42.720;23.344;2022-11-13T06:44:08;22.08;;;13.98;;
59263;SDS011;45030;42.720;23.344;2022-11-13T06:46:33;23.63;;;14.18;;
59263;SDS011;45030;42.720;23.344;2022-11-13T06:48:58;22.48;;;12.60;;
59263;SDS011;45030;42.720;23.344;2022-11-13T06:51:24;23.13;;;14.00;;
59263;SDS011;45030;42.720;23.344;2022-11-13T06:53:50;23.45;;;13.88;;
59263;SDS011;45030;42.720;23.344;2022-11-13T06:56:15;21.63;;;14.13;;
59263;SDS011;45030;42.720;23.344;2022-11-13T06:58:41;23.60;;;14.05;;
59263;SDS011;45030;42.720;23.344;2022-11-13T07:01:11;18.40;;;11.50;;
59263;SDS011;45030;42.720;23.344;2022-11-13T07:03:37;19.95;;;10.55;;
59263;SDS011;45030;42.720;23.344;2022-11-13T07:06:03;22.10;;;13.27;;
59263;SDS011;45030;42.720;23.344;2022-11-13T07:08:28;25.27;;;14.57;;
59263;SDS011;45030;42.720;23.344;2022-11-13T07:10:54;25.27;;;14.07;;
59263;SDS011;45030;42.720;23.344;2022-11-13T07:13:20;24.95;;;13.43;;
59263;SDS011;45030;42.720;23.344;2022-11-13T07:15:45;21.88;;;12.63;;
59263;SDS011;45030;42.720;23.344;2022-11-13T07:18:11;26.63;;;14.32;;
59263;SDS011;45030;42.720;23.344;2022-11-13T07:20:36;25.58;;;14.75;;
59263;SDS011;45030;42.720;23.344;2022-11-13T07:23:01;26.42;;;15.75;;
59263;SDS011;45030;42.720;23.344;2022-11-13T07:25:27;24.17;;;13.98;;
59263;SDS011;45030;42.720;23.344;2022-11-13T07:27:53;29.88;;;15.52;;
59263;SDS011;45030;42.720;23.344;2022-11-13T07:30:18;63.33;;;42.20;;
59263;SDS011;45030;42.720;23.344;2022-11-13T07:32:44;41.60;;;29.05;;
59263;SDS011;45030;42.720;23.344;2022-11-13T07:35:09;26.60;;;15.95;;
59263;SDS011;45030;42.720;23.344;2022-11-13T07:37:34;61.15;;;50.53;;
59263;SDS011;45030;42.720;23.344;2022-11-13T07:39:59;37.30;;;30.52;;
59263;SDS011;45030;42.720;23.344;2022-11-13T07:42:25;28.17;;;21.92;;
59263;SDS011;45030;42.720;23.344;2022-11-13T07:44:50;26.80;;;16.20;;
59263;SDS011;45030;42.720;23.344;2022-11-13T07:47:15;28.17;;;18.55;;
59263;SDS011;45030;42.720;23.344;2022-11-13T07:49:40;28.85;;;19.98;;
59263;SDS011;45030;42.720;23.344;2022-11-13T07:52:06;26.70;;;17.52;;
59263;SDS011;45030;42.720;23.344;2022-11-13T07:54:31;24.08;;;15.75;;
59263;SDS011;45030;42.720;23.344;2022-11-13T07:56:56;28.02;;;16.58;;
59263;SDS011;45030;42.720;23.344;2022-11-13T07:59:21;25.63;;;19.15;;
59263;SDS011;45030;42.720;23.344;2022-11-13T08:01:46;26.05;;;18.52;;
59263;SDS011;45030;42.720;23.344;2022-11-13T08:04:12;33.83;;;21.35;;
59263;SDS011;45030;42.720;23.344;2022-11-13T08:06:37;36.35;;;23.67;;
59263;SDS011;45030;42.720;23.344;2022-11-13T08:09:02;32.30;;;23.88;;
59263;SDS011;45030;42.720;23.344;2022-11-13T08:11:28;38.95;;;25.52;;
59263;SDS011;45030;42.720;23.344;2022-11-13T08:13:53;41.17;;;29.77;;
59263;SDS011;45030;42.720;23.344;2022-11-13T08:16:18;32.30;;;20.75;;
59263;SDS011;45030;42.720;23.344;2022-11-13T08:18:43;30.23;;;20.55;;
59263;SDS011;45030;42.720;23.344;2022-11-13T08:21:09;31.13;;;18.90;;
59263;SDS011;45030;42.720;23.344;2022-11-13T08:23:34;30.65;;;20.70;;
59263;SDS011;45030;42.720;23.344;2022-11-13T08:26:02;32.88;;;17.17;;
59263;SDS011;45030;42.720;23.344;2022-11-13T08:28:28;29.85;;;19.88;;
59263;SDS011;45030;42.720;23.344;2022-11-13T08:30:53;18.73;;;13.13;;
59263;SDS011;45030;42.720;23.344;2022-11-13T08:33:18;23.00;;;14.10;;
59263;SDS011;45030;42.720;23.344;2022-11-13T08:35:50;69.38;;;36.60;;
59263;SDS011;45030;42.720;23.344;2022-11-13T08:38:15;25.17;;;15.60;;
59263;SDS011;45030;42.720;23.344;2022-11-13T08:40:41;21.70;;;12.52;;
59263;SDS011;45030;42.720;23.344;2022-11-13T08:43:06;27.17;;;16.75;;
59263;SDS011;45030;42.720;23.344;2022-11-13T08:45:31;30.15;;;18.40;;
59263;SDS011;45030;42.720;23.344;2022-11-13T08:48:00;27.23;;;16.45;;
59263;SDS011;45030;42.720;23.344;2022-11-13T08:50:25;24.70;;;15.55;;
59263;SDS011;45030;42.720;23.344;2022-11-13T08:52:54;27.88;;;15.45;;
59263;SDS011;45030;42.720;23.344;2022-11-13T08:55:19;29.35;;;17.42;;
59263;SDS011;45030;42.720;23.344;2022-11-13T08:57:45;64.90;;;33.00;;
59263;SDS011;45030;42.720;23.344;2022-11-13T09:00:10;50.53;;;35.45;;
59263;SDS011;45030;42.720;23.344;2022-11-13T09:02:35;27.58;;;18.27;;
59263;SDS011;45030;42.720;23.344;2022-11-13T09:05:01;27.25;;;19.27;;
59263;SDS011;45030;42.720;23.344;2022-11-13T09:07:26;25.63;;;14.93;;
59263;SDS011;45030;42.720;23.344;2022-11-13T09:09:51;31.42;;;18.23;;
59263;SDS011;45030;42.720;23.344;2022-11-13T09:12:16;39.55;;;27.70;;
59263;SDS011;45030;42.720;23.344;2022-11-13T09:14:42;25.83;;;17.85;;
59263;SDS011;45030;42.720;23.344;2022-11-13T09:17:07;28.33;;;19.42;;
59263;SDS011;45030;42.720;23.344;2022-11-13T09:19:32;29.10;;;16.60;;
59263;SDS011;45030;42.720;23.344;2022-11-13T09:21:57;21.98;;;14.75;;
59263;SDS011;45030;42.720;23.344;2022-11-13T09:24:23;30.98;;;18.58;;
59263;SDS011;45030;42.720;23.344;2022-11-13T09:26:48;32.92;;;21.70;;
59263;SDS011;45030;42.720;23.344;2022-11-13T09:29:13;28.45;;;18.33;;
59263;SDS011;45030;42.720;23.344;2022-11-13T09:31:38;24.88;;;17.40;;
59263;SDS011;45030;42.720;23.344;2022-11-13T09:34:05;30.35;;;22.08;;
59263;SDS011;45030;42.720;23.344;2022-11-13T09:36:30;20.50;;;12.73;;
59263;SDS011;45030;42.720;23.344;2022-11-13T09:38:55;26.55;;;17.33;;
59263;SDS011;45030;42.720;23.344;2022-11-13T09:41:25;31.92;;;21.67;;
59263;SDS011;45030;42.720;23.344;2022-11-13T09:43:52;31.50;;;19.30;;
59263;SDS011;45030;42.720;23.344;2022-11-13T09:46:20;24.98;;;16.38;;
59263;SDS011;45030;42.720;23.344;2022-11-13T09:49:00;29.80;;;20.23;;
59263;SDS011;45030;42.720;23.344;2022-11-13T09:51:29;27.27;;;15.13;;
59263;SDS011;45030;42.720;23.344;2022-11-13T09:53:54;21.33;;;11.48;;
59263;SDS011;45030;42.720;23.344;2022-11-13T09:56:27;20.92;;;12.80;;
59263;SDS011;45030;42.720;23.344;2022-11-13T09:58:55;28.10;;;19.05;;
59263;SDS011;45030;42.720;23.344;2022-11-13T10:01:25;25.25;;;15.55;;
59263;SDS011;45030;42.720;23.344;2022-11-13T10:03:53;25.20;;;16.35;;
59263;SDS011;45030;42.720;23.344;2022-11-13T10:06:22;25.15;;;17.45;;
59263;SDS011;45030;42.720;23.344;2022-11-13T10:11:42;30.35;;;17.55;;
59263;SDS011;45030;42.720;23.344;2022-11-13T10:16:57;38.90;;;24.10;;
59263;SDS011;45030;42.720;23.344;2022-11-13T10:24:42;39.55;;;22.70;;
59263;SDS011;45030;42.720;23.344;2022-11-13T10:27:08;40.03;;;25.85;;
59263;SDS011;45030;42.720;23.344;2022-11-13T10:29:35;26.27;;;17.75;;
59263;SDS011;45030;42.720;23.344;2022-11-13T10:32:13;28.05;;;18.13;;
59263;SDS011;45030;42.720;23.344;2022-11-13T10:34:38;28.75;;;15.38;;
59263;SDS011;45030;42.720;23.344;2022-11-13T10:39:30;23.77;;;14.68;;
59263;SDS011;45030;42.720;23.344;2022-11-13T10:41:55;24.88;;;17.05;;
59263;SDS011;45030;42.720;23.344;2022-11-13T10:44:33;22.33;;;15.05;;
59263;SDS011;45030;42.720;23.344;2022-11-13T10:47:18;23.30;;;15.20;;
59263;SDS011;45030;42.720;23.344;2022-11-13T10:49:43;26.70;;;15.68;;
59263;SDS011;45030;42.720;23.344;2022-11-13T10:52:25;23.42;;;16.85;;
59263;SDS011;45030;42.720;23.344;2022-11-13T10:55:03;25.83;;;16.90;;
59263;SDS011;45030;42.720;23.344;2022-11-13T11:00:17;22.13;;;12.82;;
59263;SDS011;45030;42.720;23.344;2022-11-13T11:02:47;24.02;;;15.88;;
59263;SDS011;45030;42.720;23.344;2022-11-13T11:05:16;19.90;;;14.52;;
59263;SDS011;45030;42.720;23.344;2022-11-13T11:07:42;21.42;;;14.63;;
59263;SDS011;45030;42.720;23.344;2022-11-13T11:12:51;23.50;;;17.27;;
59263;SDS011;45030;42.720;23.344;2022-11-13T11:15:30;23.80;;;15.73;;
59263;SDS011;45030;42.720;23.344;2022-11-13T11:17:58;22.95;;;15.63;;
59263;SDS011;45030;42.720;23.344;2022-11-13T11:23:08;28.08;;;17.60;;
59263;SDS011;45030;42.720;23.344;2022-11-13T11:25:39;20.38;;;13.32;;
59263;SDS011;45030;42.720;23.344;2022-11-13T11:28:14;22.50;;;14.82;;
59263;SDS011;45030;42.720;23.344;2022-11-13T11:30:52;20.73;;;14.30;;
59263;SDS011;45030;42.720;23.344;2022-11-13T11:33:22;22.75;;;12.98;;
59263;SDS011;45030;42.720;23.344;2022-11-13T11:35:59;25.15;;;15.48;;
59263;SDS011;45030;42.720;23.344;2022-11-13T11:41:19;22.27;;;16.17;;
59263;SDS011;45030;42.720;23.344;2022-11-13T11:43:50;52.70;;;24.90;;
59263;SDS011;45030;42.720;23.344;2022-11-13T11:46:20;44.27;;;27.93;;
59263;SDS011;45030;42.720;23.344;2022-11-13T11:48:46;41.67;;;24.98;;
59263;SDS011;45030;42.720;23.344;2022-11-13T11:56:39;87.05;;;36.78;;
59263;SDS011;45030;42.720;23.344;2022-11-13T12:11:28;41.88;;;25.15;;
59263;SDS011;45030;42.720;23.344;2022-11-13T12:21:51;29.55;;;17.75;;
59263;SDS011;45030;42.720;23.344;2022-11-13T12:29:34;30.42;;;19.58;;
59263;SDS011;45030;42.720;23.344;2022-11-13T12:34:34;29.98;;;20.17;;
59263;SDS011;45030;42.720;23.344;2022-11-13T12:37:07;28.30;;;19.17;;
59263;SDS011;45030;42.720;23.344;2022-11-13T12:40:18;35.38;;;21.73;;
59263;SDS011;45030;42.720;23.344;2022-11-13T12:42:41;38.30;;;21.85;;
59263;SDS011;45030;42.720;23.344;2022-11-13T12:45:11;29.70;;;20.27;;
59263;SDS011;45030;42.720;23.344;2022-11-13T12:47:39;29.17;;;19.98;;
59263;SDS011;45030;42.720;23.344;2022-11-13T12:50:18;30.92;;;20.98;;
59263;SDS011;45030;42.720;23.344;2022-11-13T12:52:44;32.60;;;22.65;;
59263;SDS011;45030;42.720;23.344;2022-11-13T12:55:23;37.78;;;20.98;;
59263;SDS011;45030;42.720;23.344;2022-11-13T12:57:49;30.35;;;18.38;;
59263;SDS011;45030;42.720;23.344;2022-11-13T13:00:21;30.13;;;19.90;;
59263;SDS011;45030;42.720;23.344;2022-11-13T13:18:00;31.30;;;21.05;;
59263;SDS011;45030;42.720;23.344;2022-11-13T13:20:32;34.90;;;20.83;;
59263;SDS011;45030;42.720;23.344;2022-11-13T13:22:58;35.67;;;21.30;;
59263;SDS011;45030;42.720;23.344;2022-11-13T13:25:28;29.15;;;16.95;;
59263;SDS011;45030;42.720;23.344;2022-11-13T13:30:22;29.27;;;18.67;;
59263;SDS011;45030;42.720;23.344;2022-11-13T13:32:56;33.03;;;19.48;;
59263;SDS011;45030;42.720;23.344;2022-11-13T13:35:28;29.92;;;19.17;;
59263;SDS011;45030;42.720;23.344;2022-11-13T13:37:56;33.10;;;17.77;;
59263;SDS011;45030;42.720;23.344;2022-11-13T13:48:10;31.92;;;21.90;;
59263;SDS011;45030;42.720;23.344;2022-11-13T13:50:40;60.28;;;36.55;;
59263;SDS011;45030;42.720;23.344;2022-11-13T13:53:08;59.30;;;31.98;;
59263;SDS011;45030;42.720;23.344;2022-11-13T13:55:36;23.30;;;16.70;;
59263;SDS011;45030;42.720;23.344;2022-11-13T13:58:11;27.02;;;17.83;;
59263;SDS011;45030;42.720;23.344;2022-11-13T14:00:37;27.17;;;16.50;;
59263;SDS011;45030;42.720;23.344;2022-11-13T14:03:03;31.55;;;20.45;;
59263;SDS011;45030;42.720;23.344;2022-11-13T14:07:53;32.88;;;21.67;;
59263;SDS011;45030;42.720;23.344;2022-11-13T14:10:20;26.58;;;17.48;;
59263;SDS011;45030;42.720;23.344;2022-11-13T14:12:46;23.90;;;15.68;;
59263;SDS011;45030;42.720;23.344;2022-11-13T14:17:45;23.13;;;14.82;;
59263;SDS011;45030;42.720;23.344;2022-11-13T14:20:11;24.60;;;16.08;;
59263;SDS011;45030;42.720;23.344;2022-11-13T14:22:36;25.85;;;15.98;;
59263;SDS011;45030;42.720;23.344;2022-11-13T14:25:02;26.63;;;16.20;;
59263;SDS011;45030;42.720;23.344;2022-11-13T14:27:27;24.35;;;15.43;;
59263;SDS011;45030;42.720;23.344;2022-11-13T14:29:56;28.77;;;17.75;;
59263;SDS011;45030;42.720;23.344;2022-11-13T14:32:24;25.85;;;16.27;;
59263;SDS011;45030;42.720;23.344;2022-11-13T14:34:51;28.73;;;18.42;;
59263;SDS011;45030;42.720;23.344;2022-11-13T14:39:45;27.17;;;16.00;;
59263;SDS011;45030;42.720;23.344;2022-11-13T14:42:44;25.15;;;15.13;;
59263;SDS011;45030;42.720;23.344;2022-11-13T14:45:16;28.48;;;16.73;;
59263;SDS011;45030;42.720;23.344;2022-11-13T14:47:41;36.53;;;21.50;;
59263;SDS011;45030;42.720;23.344;2022-11-13T14:52:58;79.25;;;40.20;;
59263;SDS011;45030;42.720;23.344;2022-11-13T14:55:24;56.40;;;28.08;;
59263;SDS011;45030;42.720;23.344;2022-11-13T14:57:50;70.57;;;32.42;;
59263;SDS011;45030;42.720;23.344;2022-11-13T15:00:24;103.25;;;43.80;;
59263;SDS011;45030;42.720;23.344;2022-11-13T15:02:50;84.13;;;37.33;;
59263;SDS011;45030;42.720;23.344;2022-11-13T15:05:15;115.20;;;48.55;;
59263;SDS011;45030;42.720;23.344;2022-11-13T15:07:40;178.73;;;73.80;;
59263;SDS011;45030;42.720;23.344;2022-11-13T15:10:08;115.68;;;46.13;;
59263;SDS011;45030;42.720;23.344;2022-11-13T15:12:35;119.07;;;57.60;;
59263;SDS011;45030;42.720;23.344;2022-11-13T15:15:01;109.13;;;50.83;;
59263;SDS011;45030;42.720;23.344;2022-11-13T15:17:26;73.13;;;37.33;;
59263;SDS011;45030;42.720;23.344;2022-11-13T15:19:51;123.28;;;59.78;;
59263;SDS011;45030;42.720;23.344;2022-11-13T15:22:17;90.82;;;49.53;;
59263;SDS011;45030;42.720;23.344;2022-11-13T15:24:43;69.57;;;39.05;;
59263;SDS011;45030;42.720;23.344;2022-11-13T15:27:11;56.08;;;29.52;;
59263;SDS011;45030;42.720;23.344;2022-11-13T15:29:36;62.08;;;33.15;;
59263;SDS011;45030;42.720;23.344;2022-11-13T15:32:02;67.32;;;36.03;;
59263;SDS011;45030;42.720;23.344;2022-11-13T15:34:27;68.22;;;34.00;;
59263;SDS011;45030;42.720;23.344;2022-11-13T15:36:52;67.10;;;36.05;;
59263;SDS011;45030;42.720;23.344;2022-11-13T15:39:18;69.07;;;35.97;;
59263;SDS011;45030;42.720;23.344;2022-11-13T15:41:43;95.30;;;51.67;;
59263;SDS011;45030;42.720;23.344;2022-11-13T15:44:14;101.38;;;55.22;;
59263;SDS011;45030;42.720;23.344;2022-11-13T15:46:40;78.10;;;46.13;;
59263;SDS011;45030;42.720;23.344;2022-11-13T15:49:05;56.22;;;33.38;;